createdAt,value
2019-01-27T00:01:32.802Z,96353.47
2019-01-27T00:04:03.184Z,96351.95
2019-01-27T00:06:33.659Z,96343.06
2019-01-27T00:09:06.802Z,96338.22
2019-01-27T00:11:37.265Z,96339.41
2019-01-27T00:14:07.761Z,96336.16
2019-01-27T00:16:38.148Z,96325.25
2019-01-27T00:19:08.680Z,96323.69
2019-01-27T00:21:39.135Z,96312.67
2019-01-27T00:24:09.476Z,96307.91
2019-01-27T00:26:39.810Z,96300.02
2019-01-27T00:29:10.189Z,96298.84
2019-01-27T00:31:40.532Z,96294.75
2019-01-27T00:34:10.909Z,96289.20
2019-01-27T00:36:41.315Z,96275.38
2019-01-27T00:39:12.343Z,96274.03
2019-01-27T00:41:42.876Z,96265.94
2019-01-27T00:44:13.217Z,96268.80
2019-01-27T00:46:43.484Z,96253.55
2019-01-27T00:49:13.808Z,96243.56
2019-01-27T00:51:44.235Z,96240.39
2019-01-27T00:54:14.602Z,96236.16
2019-01-27T00:56:44.976Z,96228.98
2019-01-27T00:59:15.210Z,96224.43
2019-01-27T01:01:45.608Z,96228.58
2019-01-27T01:04:15.912Z,96222.48
2019-01-27T01:06:46.346Z,96214.98
2019-01-27T01:09:16.759Z,96210.95
2019-01-27T01:11:47.228Z,96207.92
2019-01-27T01:14:17.611Z,96207.02
2019-01-27T01:16:48.029Z,96200.81
2019-01-27T01:19:18.515Z,96199.64
2019-01-27T01:21:48.958Z,96192.17
2019-01-27T01:24:19.295Z,96181.53
2019-01-27T01:26:49.607Z,96169.98
2019-01-27T01:29:19.917Z,96158.75
2019-01-27T01:31:50.282Z,96167.13
2019-01-27T01:34:21.691Z,96161.55
2019-01-27T01:36:52.056Z,96150.13
2019-01-27T01:39:22.348Z,96147.14
2019-01-27T01:41:52.710Z,96137.91
2019-01-27T01:44:22.961Z,96143.00
2019-01-27T01:46:53.316Z,96138.00
2019-01-27T01:49:30.882Z,96136.17
2019-01-27T01:52:01.204Z,96117.56
2019-01-27T01:54:31.496Z,96122.72
2019-01-27T01:57:02.357Z,96118.61
2019-01-27T01:59:32.714Z,96109.66
2019-01-27T02:02:03.128Z,96105.07
2019-01-27T02:04:33.425Z,96109.50
2019-01-27T02:07:03.840Z,96093.00
2019-01-27T02:09:34.017Z,96102.70
2019-01-27T02:12:04.896Z,96095.02
2019-01-27T02:14:35.180Z,96083.13
2019-01-27T02:17:05.555Z,96077.33
2019-01-27T02:19:36.021Z,96071.86
2019-01-27T02:22:06.484Z,96065.39
2019-01-27T02:24:36.902Z,96056.08
2019-01-27T02:27:07.359Z,96062.70
2019-01-27T02:29:37.689Z,96046.48
2019-01-27T02:32:08.074Z,96049.89
2019-01-27T02:34:38.536Z,96040.42
2019-01-27T02:37:08.874Z,96032.76
2019-01-27T02:39:39.319Z,96027.76
2019-01-27T02:42:09.715Z,96016.34
2019-01-27T02:44:40.028Z,96023.88
2019-01-27T02:47:10.508Z,96030.17
2019-01-27T02:49:40.788Z,96024.77
2019-01-27T02:52:11.000Z,96023.52
2019-01-27T02:54:41.280Z,96006.61
2019-01-27T02:57:11.529Z,95998.04
2019-01-27T02:59:41.856Z,95986.81
2019-01-27T03:02:13.268Z,95979.78
2019-01-27T03:04:43.610Z,95972.66
2019-01-27T03:07:21.933Z,95967.06
2019-01-27T03:09:52.401Z,95962.03
2019-01-27T03:12:22.877Z,95950.81
2019-01-27T03:14:53.220Z,95948.00
2019-01-27T03:17:23.736Z,95942.45
2019-01-27T03:19:53.997Z,95939.64
2019-01-27T03:22:24.400Z,95933.80
2019-01-27T03:24:54.817Z,95940.27
2019-01-27T03:27:25.250Z,95937.72
2019-01-27T03:29:55.587Z,95936.92
2019-01-27T03:32:26.004Z,95929.58
2019-01-27T03:34:56.418Z,95927.03
2019-01-27T03:37:26.802Z,95919.32
2019-01-27T03:39:57.057Z,95912.98
2019-01-27T03:42:27.363Z,95912.09
2019-01-27T03:44:57.755Z,95911.34
2019-01-27T03:47:28.106Z,95911.30
2019-01-27T03:49:58.489Z,95916.56
2019-01-27T03:52:28.821Z,95906.75
2019-01-27T03:54:59.152Z,95902.75
2019-01-27T03:57:29.541Z,95893.73
2019-01-27T03:59:59.816Z,95886.30
2019-01-27T04:02:31.174Z,95885.81
2019-01-27T04:05:01.455Z,95882.66
2019-01-27T04:07:31.804Z,95878.20
2019-01-27T04:10:02.203Z,95868.93
2019-01-27T04:12:32.495Z,95864.46
2019-01-27T04:15:02.962Z,95853.36
2019-01-27T04:17:33.275Z,95845.94
2019-01-27T04:20:03.949Z,95835.95
2019-01-27T04:22:34.121Z,95834.39
2019-01-27T04:25:04.726Z,95821.91
2019-01-27T04:27:35.103Z,95816.59
2019-01-27T04:30:07.638Z,95803.19
2019-01-27T04:32:37.921Z,95810.37
2019-01-27T04:35:10.284Z,95807.66
2019-01-27T04:37:40.703Z,95802.67
2019-01-27T04:40:15.923Z,95791.09
2019-01-27T04:42:46.219Z,95778.45
2019-01-27T04:45:19.770Z,95780.91
2019-01-27T04:47:50.094Z,95765.92
2019-01-27T04:50:20.497Z,95767.20
2019-01-27T04:52:50.854Z,95763.02
2019-01-27T04:55:21.438Z,95752.50
2019-01-27T04:57:51.790Z,95747.72
2019-01-27T05:00:24.234Z,95742.78
2019-01-27T05:03:03.543Z,95735.13
2019-01-27T05:05:33.919Z,95731.46
2019-01-27T05:08:04.522Z,95746.75
2019-01-27T05:10:34.927Z,95747.05
2019-01-27T05:13:06.159Z,95734.66
2019-01-27T05:15:36.543Z,95734.13
2019-01-27T05:18:06.954Z,95729.89
2019-01-27T05:20:37.361Z,95736.22
2019-01-27T05:23:07.815Z,95732.02
2019-01-27T05:25:38.115Z,95723.53
2019-01-27T05:28:08.490Z,95714.85
2019-01-27T05:30:38.843Z,95706.92
2019-01-27T05:33:09.165Z,95709.79
2019-01-27T05:35:39.539Z,95696.59
2019-01-27T05:38:09.865Z,95707.67
2019-01-27T05:40:40.190Z,95692.41
2019-01-27T05:43:10.582Z,95693.45
2019-01-27T05:45:40.942Z,95683.16
2019-01-27T05:48:11.175Z,95680.03
2019-01-27T05:50:41.439Z,95679.80
2019-01-27T05:53:11.738Z,95674.78
2019-01-27T05:55:42.058Z,95669.50
2019-01-27T05:58:12.365Z,95669.55
2019-01-27T06:00:44.683Z,95671.42
2019-01-27T06:03:15.467Z,95667.42
2019-01-27T06:05:45.901Z,95669.55
2019-01-27T06:08:16.102Z,95665.59
2019-01-27T06:10:46.515Z,95666.41
2019-01-27T06:13:16.867Z,95666.11
2019-01-27T06:15:47.249Z,95667.97
2019-01-27T06:18:17.699Z,95662.94
2019-01-27T06:20:48.017Z,95648.97
2019-01-27T06:23:18.405Z,95642.90
2019-01-27T06:25:48.825Z,95636.59
2019-01-27T06:28:19.045Z,95626.83
2019-01-27T06:30:49.231Z,95631.58
2019-01-27T06:33:36.814Z,95643.42
2019-01-27T06:36:07.186Z,95640.52
2019-01-27T06:38:37.566Z,95638.67
2019-01-27T06:41:07.953Z,95636.06
2019-01-27T06:43:38.263Z,95628.37
2019-01-27T06:46:08.590Z,95623.91
2019-01-27T06:48:38.915Z,95621.53
2019-01-27T06:51:09.344Z,95619.44
2019-01-27T06:53:39.756Z,95611.24
2019-01-27T06:56:10.149Z,95608.64
2019-01-27T06:59:15.211Z,95599.67
2019-01-27T07:02:10.366Z,95598.09
2019-01-27T07:04:51.799Z,95602.05
2019-01-27T07:07:39.794Z,95599.94
2019-01-27T07:10:28.237Z,95600.73
2019-01-27T07:13:14.591Z,95581.23
2019-01-27T07:16:09.922Z,95573.59
2019-01-27T07:18:52.700Z,95575.70
2019-01-27T07:21:40.562Z,95571.47
2019-01-27T07:24:29.949Z,95562.24
2019-01-27T07:27:19.196Z,95559.34
2019-01-27T07:29:58.774Z,95549.33
2019-01-27T07:32:49.648Z,95556.17
2019-01-27T07:35:47.693Z,95561.44
2019-01-27T07:38:37.163Z,95560.94
2019-01-27T07:41:35.858Z,95561.98
2019-01-27T07:44:28.081Z,95559.34
2019-01-27T07:47:03.706Z,95552.51
2019-01-27T07:50:05.203Z,95545.38
2019-01-27T07:52:44.605Z,95554.33
2019-01-27T07:55:45.876Z,95553.54
2019-01-27T07:58:38.863Z,95541.16
2019-01-27T08:01:18.747Z,95549.08
2019-01-27T08:04:26.223Z,95539.55
2019-01-27T08:07:30.536Z,95531.91
2019-01-27T08:10:18.347Z,95527.92
2019-01-27T08:13:06.440Z,95530.50
2019-01-27T08:16:01.726Z,95529.97
2019-01-27T08:18:54.709Z,95533.37
2019-01-27T08:21:34.133Z,95531.81
2019-01-27T08:24:35.925Z,95534.09
2019-01-27T08:27:17.993Z,95530.12
2019-01-27T08:30:14.886Z,95545.20
2019-01-27T08:33:02.820Z,95532.67
2019-01-27T08:35:40.744Z,95526.08
2019-01-27T08:38:29.378Z,95532.09
2019-01-27T08:41:25.514Z,95523.45
2019-01-27T08:44:10.200Z,95508.70
2019-01-27T08:46:59.539Z,95501.09
2019-01-27T08:49:30.010Z,95496.08
2019-01-27T08:52:00.410Z,95506.91
2019-01-27T08:54:30.923Z,95507.22
2019-01-27T08:57:01.399Z,95486.38
2019-01-27T08:59:31.981Z,95488.50
2019-01-27T09:02:25.032Z,95488.76
2019-01-27T09:05:17.246Z,95495.60
2019-01-27T09:07:55.977Z,95508.02
2019-01-27T09:10:42.093Z,95501.90
2019-01-27T09:13:22.669Z,95500.58
2019-01-27T09:16:14.764Z,95497.88
2019-01-27T09:19:09.944Z,95498.71
2019-01-27T09:21:53.493Z,95495.80
2019-01-27T09:24:35.291Z,95499.28
2019-01-27T09:27:19.663Z,95503.09
2019-01-27T09:30:08.237Z,95508.38
2019-01-27T09:33:08.022Z,95501.27
2019-01-27T09:36:09.555Z,95500.67
2019-01-27T09:39:08.158Z,95496.86
2019-01-27T09:41:53.140Z,95495.17
2019-01-27T09:44:34.930Z,95490.84
2019-01-27T09:47:31.571Z,95484.69
2019-01-27T09:50:20.283Z,95486.20
2019-01-27T09:53:24.517Z,95476.70
2019-01-27T09:56:04.415Z,95477.58
2019-01-27T09:58:52.325Z,95465.89
2019-01-27T10:01:47.791Z,95466.55
2019-01-27T10:04:26.314Z,95464.20
2019-01-27T10:07:15.638Z,95455.12
2019-01-27T10:09:57.450Z,95457.52
2019-01-27T10:12:39.868Z,95453.86
2019-01-27T10:15:34.256Z,95449.13
2019-01-27T10:18:17.633Z,95447.28
2019-01-27T10:21:10.003Z,95449.67
2019-01-27T10:23:58.424Z,95436.24
2019-01-27T10:26:53.547Z,95441.53
2019-01-27T10:29:43.336Z,95446.72
2019-01-27T10:32:27.839Z,95450.22
2019-01-27T10:35:04.123Z,95447.73
2019-01-27T10:37:45.188Z,95451.22
2019-01-27T10:40:39.911Z,95439.21
2019-01-27T10:43:21.700Z,95436.38
2019-01-27T10:46:25.974Z,95433.09
2019-01-27T10:49:21.205Z,95420.02
2019-01-27T10:52:02.431Z,95423.05
2019-01-27T10:54:49.234Z,95417.58
2019-01-27T10:57:30.445Z,95407.95
2019-01-27T11:00:23.474Z,95406.27
2019-01-27T11:03:13.700Z,95407.59
2019-01-27T11:06:07.572Z,95397.80
2019-01-27T11:08:55.610Z,95396.16
2019-01-27T11:11:38.934Z,95384.86
2019-01-27T11:14:28.262Z,95372.91
2019-01-27T11:17:12.240Z,95381.22
2019-01-27T11:20:07.770Z,95382.37
2019-01-27T11:22:50.630Z,95369.88
2019-01-27T11:25:42.979Z,95377.92
2019-01-27T11:28:36.601Z,95370.62
2019-01-27T11:31:40.990Z,95366.97
2019-01-27T11:34:26.774Z,95370.49
2019-01-27T11:37:11.114Z,95359.45
2019-01-27T11:40:03.210Z,95359.63
2019-01-27T11:42:50.739Z,95356.27
2019-01-27T11:45:39.387Z,95347.98
2019-01-27T11:48:24.722Z,95337.80
2019-01-27T11:50:58.924Z,95332.45
2019-01-27T11:53:29.354Z,95326.84
2019-01-27T11:55:59.809Z,95312.50
2019-01-27T11:58:30.202Z,95313.43
2019-01-27T12:01:04.701Z,95317.45
2019-01-27T12:03:35.012Z,95312.39
2019-01-27T12:06:05.668Z,95308.60
2019-01-27T12:08:35.890Z,95319.53
2019-01-27T12:11:06.982Z,95322.63
2019-01-27T12:13:38.504Z,95308.54
2019-01-27T12:16:08.888Z,95308.70
2019-01-27T12:18:39.228Z,95309.05
2019-01-27T12:21:09.587Z,95307.30
2019-01-27T12:23:39.896Z,95295.84
2019-01-27T12:26:10.179Z,95301.50
2019-01-27T12:28:40.602Z,95292.31
2019-01-27T12:31:10.968Z,95280.45
2019-01-27T12:33:41.264Z,95290.13
2019-01-27T12:36:13.719Z,95284.98
2019-01-27T12:38:44.039Z,95279.04
2019-01-27T12:41:14.490Z,95289.88
2019-01-27T12:43:45.037Z,95282.33
2019-01-27T12:46:15.387Z,95281.11
2019-01-27T12:48:45.790Z,95272.17
2019-01-27T12:51:16.206Z,95280.58
2019-01-27T12:53:46.628Z,95276.63
2019-01-27T12:56:17.054Z,95269.27
2019-01-27T12:58:50.847Z,95262.03
2019-01-27T13:01:21.227Z,95260.70
2019-01-27T13:03:51.641Z,95261.39
2019-01-27T13:06:22.047Z,95258.27
2019-01-27T13:08:52.595Z,95266.77
2019-01-27T13:11:23.077Z,95255.44
2019-01-27T13:13:53.507Z,95254.52
2019-01-27T13:16:24.254Z,95262.34
2019-01-27T13:18:54.716Z,95256.96
2019-01-27T13:21:25.769Z,95249.07
2019-01-27T13:23:56.170Z,95244.03
2019-01-27T13:26:26.672Z,95236.64
2019-01-27T13:28:57.127Z,95227.38
2019-01-27T13:31:29.621Z,95241.98
2019-01-27T13:34:00.387Z,95245.02
2019-01-27T13:36:32.119Z,95238.59
2019-01-27T13:39:02.447Z,95228.28
2019-01-27T13:41:32.863Z,95228.81
2019-01-27T13:44:03.318Z,95235.29
2019-01-27T13:46:34.727Z,95228.61
2019-01-27T13:49:05.294Z,95218.36
2019-01-27T13:51:35.889Z,95225.30
2019-01-27T13:54:06.434Z,95216.78
2019-01-27T13:56:36.854Z,95210.47
2019-01-27T13:59:07.298Z,95198.98
2019-01-27T14:01:37.586Z,95197.56
2019-01-27T14:04:08.179Z,95193.03
2019-01-27T14:06:38.629Z,95193.92
2019-01-27T14:09:09.555Z,95189.63
2019-01-27T14:11:40.001Z,95190.48
2019-01-27T14:14:10.371Z,95184.73
2019-01-27T14:16:40.774Z,95182.11
2019-01-27T14:19:11.324Z,95176.53
2019-01-27T14:21:41.694Z,95189.89
2019-01-27T14:24:12.114Z,95187.05
2019-01-27T14:26:43.601Z,95199.87
2019-01-27T14:29:14.142Z,95196.52
2019-01-27T14:31:44.745Z,95201.94
2019-01-27T14:34:15.192Z,95205.60
2019-01-27T14:36:45.678Z,95194.81
2019-01-27T14:39:18.008Z,95187.91
2019-01-27T14:41:48.464Z,95189.31
2019-01-27T14:44:19.138Z,95187.75
2019-01-27T14:46:49.651Z,95193.20
2019-01-27T14:49:20.126Z,95182.95
2019-01-27T14:51:50.553Z,95197.89
2019-01-27T14:54:21.231Z,95190.71
2019-01-27T14:56:51.834Z,95202.09
2019-01-27T14:59:22.421Z,95186.46
2019-01-27T15:01:52.821Z,95184.20
2019-01-27T15:04:23.327Z,95168.01
2019-01-27T15:06:53.877Z,95179.31
2019-01-27T15:09:24.354Z,95180.45
2019-01-27T15:11:54.858Z,95165.01
2019-01-27T15:14:25.538Z,95173.48
2019-01-27T15:16:56.194Z,95165.78
2019-01-27T15:19:27.381Z,95175.80
2019-01-27T15:21:58.068Z,95171.03
2019-01-27T15:24:28.677Z,95177.40
2019-01-27T15:26:59.290Z,95174.75
2019-01-27T15:29:29.709Z,95178.16
2019-01-27T15:32:01.211Z,95179.13
2019-01-27T15:34:31.850Z,95176.66
2019-01-27T15:37:02.299Z,95173.89
2019-01-27T15:39:33.221Z,95173.80
2019-01-27T15:42:03.495Z,95167.91
2019-01-27T15:44:34.299Z,95160.51
2019-01-27T15:47:05.031Z,95174.70
2019-01-27T15:49:35.683Z,95159.78
2019-01-27T15:52:06.293Z,95154.34
2019-01-27T15:54:36.814Z,95157.03
2019-01-27T15:57:07.252Z,95151.17
2019-01-27T15:59:37.574Z,95153.84
2019-01-27T16:02:08.047Z,95152.30
2019-01-27T16:04:38.560Z,95152.95
2019-01-27T16:07:09.030Z,95156.76
2019-01-27T16:09:39.490Z,95151.00
2019-01-27T16:12:09.917Z,95150.92
2019-01-27T16:14:40.456Z,95151.73
2019-01-27T16:17:11.048Z,95151.56
2019-01-27T16:19:42.324Z,95161.73
2019-01-27T16:22:12.779Z,95149.57
2019-01-27T16:24:43.262Z,95150.20
2019-01-27T16:27:13.695Z,95147.03
2019-01-27T16:30:02.946Z,95155.22
2019-01-27T16:32:36.289Z,95153.64
2019-01-27T16:35:12.820Z,95151.98
2019-01-27T16:37:43.294Z,95158.20
2019-01-27T16:40:16.387Z,95158.55
2019-01-27T16:42:47.661Z,95162.28
2019-01-27T16:45:18.128Z,95163.61
2019-01-27T16:47:48.628Z,95165.90
2019-01-27T16:50:19.850Z,95159.66
2019-01-27T16:52:50.341Z,95160.34
2019-01-27T16:55:21.150Z,95157.92
2019-01-27T16:57:52.584Z,95162.20
2019-01-27T17:00:26.498Z,95163.02
2019-01-27T17:02:57.034Z,95167.28
2019-01-27T17:05:27.478Z,95174.95
2019-01-27T17:07:58.029Z,95182.91
2019-01-27T17:10:29.389Z,95179.20
2019-01-27T17:13:00.256Z,95174.98
2019-01-27T17:15:30.945Z,95175.02
2019-01-27T17:18:02.431Z,95178.78
2019-01-27T17:20:32.941Z,95184.95
2019-01-27T17:23:03.434Z,95178.03
2019-01-27T17:25:33.983Z,95181.59
2019-01-27T17:28:04.828Z,95172.69
2019-01-27T17:30:35.359Z,95176.73
2019-01-27T17:33:05.918Z,95178.34
2019-01-27T17:35:37.777Z,95176.28
2019-01-27T17:38:08.374Z,95180.23
2019-01-27T17:40:38.929Z,95178.44
2019-01-27T17:43:09.332Z,95179.00
2019-01-27T17:45:39.877Z,95173.25
2019-01-27T17:48:10.316Z,95171.93
2019-01-27T17:50:40.724Z,95180.39
2019-01-27T17:53:11.214Z,95185.34
2019-01-27T17:55:42.721Z,95187.69
2019-01-27T17:58:45.041Z,95191.98
2019-01-27T18:01:46.530Z,95195.89
2019-01-27T18:04:45.244Z,95200.88
2019-01-27T18:07:36.168Z,95190.83
2019-01-27T18:10:22.350Z,95187.95
2019-01-27T18:13:11.634Z,95201.42
2019-01-27T18:15:42.127Z,95181.12
2019-01-27T18:18:12.561Z,95177.98
2019-01-27T18:20:43.073Z,95174.01
2019-01-27T18:23:13.530Z,95174.59
2019-01-27T18:25:43.954Z,95182.77
2019-01-27T18:28:14.526Z,95194.89
2019-01-27T18:30:45.148Z,95193.34
2019-01-27T18:33:15.577Z,95199.88
2019-01-27T18:35:46.046Z,95204.66
2019-01-27T18:38:16.616Z,95204.59
2019-01-27T18:40:47.128Z,95206.47
2019-01-27T18:43:17.624Z,95213.08
2019-01-27T18:45:47.919Z,95210.20
2019-01-27T18:48:18.491Z,95208.88
2019-01-27T18:50:48.924Z,95217.82
2019-01-27T18:53:41.514Z,95217.02
2019-01-27T18:56:30.608Z,95215.19
2019-01-27T18:59:18.751Z,95219.91
2019-01-27T19:02:01.412Z,95225.74
2019-01-27T19:04:37.523Z,95234.45
2019-01-27T19:07:27.061Z,95232.62
2019-01-27T19:10:31.537Z,95228.42
2019-01-27T19:13:32.722Z,95238.94
2019-01-27T19:16:23.941Z,95237.64
2019-01-27T19:19:11.671Z,95238.67
2019-01-27T19:22:01.404Z,95249.25
2019-01-27T19:24:57.483Z,95252.67
2019-01-27T19:27:53.964Z,95254.79
2019-01-27T19:30:37.908Z,95250.09
2019-01-27T19:33:27.202Z,95259.78
2019-01-27T19:36:19.490Z,95261.69
2019-01-27T19:39:00.027Z,95265.08
2019-01-27T19:41:49.489Z,95269.82
2019-01-27T19:44:41.610Z,95273.50
2019-01-27T19:47:31.092Z,95286.15
2019-01-27T19:50:19.261Z,95292.23
2019-01-27T19:52:56.597Z,95304.06
2019-01-27T19:55:55.142Z,95310.39
2019-01-27T19:58:38.021Z,95320.39
2019-01-27T20:01:26.459Z,95326.73
2019-01-27T20:04:09.946Z,95348.59
2019-01-27T20:06:57.415Z,95343.87
2019-01-27T20:09:39.609Z,95352.04
2019-01-27T20:12:22.137Z,95360.73
2019-01-27T20:15:11.427Z,95371.00
2019-01-27T20:18:09.907Z,95377.58
2019-01-27T20:21:04.108Z,95383.07
2019-01-27T20:24:11.436Z,95390.44
2019-01-27T20:27:00.240Z,95391.73
2019-01-27T20:29:45.394Z,95403.55
2019-01-27T20:32:36.944Z,95418.29
2019-01-27T20:35:41.909Z,95412.98
2019-01-27T20:38:19.463Z,95419.02
2019-01-27T20:41:12.117Z,95437.67
2019-01-27T20:44:00.328Z,95433.18
2019-01-27T20:46:41.541Z,95449.23
2019-01-27T20:49:29.696Z,95448.93
2019-01-27T20:52:19.157Z,95453.91
2019-01-27T20:55:11.353Z,95458.13
2019-01-27T20:57:48.383Z,95467.03
2019-01-27T21:00:36.777Z,95473.84
2019-01-27T21:03:30.147Z,95474.63
2019-01-27T21:06:19.638Z,95486.98
2019-01-27T21:09:10.912Z,95508.44
2019-01-27T21:12:12.973Z,95507.28
2019-01-27T21:14:53.765Z,95511.69
2019-01-27T21:17:32.975Z,95531.85
2019-01-27T21:20:10.419Z,95553.27
2019-01-27T21:22:40.907Z,95543.48
2019-01-27T21:25:12.798Z,95555.59
2019-01-27T21:27:43.383Z,95565.75
2019-01-27T21:30:17.114Z,95567.81
2019-01-27T21:32:47.621Z,95581.37
2019-01-27T21:35:25.066Z,95594.77
2019-01-27T21:38:01.509Z,95597.05
2019-01-27T21:40:31.837Z,95597.48
2019-01-27T21:43:02.550Z,95601.64
2019-01-27T21:45:33.015Z,95607.89
2019-01-27T21:48:03.606Z,95622.38
2019-01-27T21:50:34.226Z,95620.55
2019-01-27T21:53:04.755Z,95623.69
2019-01-27T21:55:35.251Z,95615.77
2019-01-27T21:58:05.739Z,95627.03
2019-01-27T22:00:36.158Z,95621.70
2019-01-27T22:03:06.786Z,95624.41
2019-01-27T22:05:38.398Z,95624.34
2019-01-27T22:08:08.819Z,95627.88
2019-01-27T22:10:40.714Z,95635.48
2019-01-27T22:13:23.944Z,95641.39
2019-01-27T22:15:56.747Z,95651.47
2019-01-27T22:18:27.386Z,95660.16
2019-01-27T22:20:58.140Z,95674.02
2019-01-27T22:23:28.597Z,95668.75
2019-01-27T22:25:58.969Z,95675.46
2019-01-27T22:28:29.455Z,95681.94
2019-01-27T22:31:06.763Z,95684.17
2019-01-27T22:33:37.182Z,95688.11
2019-01-27T22:36:07.584Z,95701.05
2019-01-27T22:38:38.060Z,95698.98
2019-01-27T22:41:08.560Z,95698.83
2019-01-27T22:44:04.011Z,95711.73
2019-01-27T22:46:48.572Z,95702.86
2019-01-27T22:49:21.070Z,95712.92
2019-01-27T22:51:52.517Z,95703.35
2019-01-27T22:54:22.931Z,95720.77
2019-01-27T22:56:53.361Z,95721.77
2019-01-27T22:59:27.460Z,95732.28
2019-01-27T23:02:01.007Z,95739.16
2019-01-27T23:04:31.507Z,95747.22
2019-01-27T23:07:02.066Z,95748.70
2019-01-27T23:09:32.331Z,95754.26
2019-01-27T23:12:02.772Z,95754.80
2019-01-27T23:14:33.180Z,95754.17
2019-01-27T23:17:03.685Z,95760.25
2019-01-27T23:19:34.084Z,95776.05
2019-01-27T23:22:04.570Z,95767.27
2019-01-27T23:24:35.084Z,95767.49
2019-01-27T23:27:05.554Z,95774.05
2019-01-27T23:29:35.938Z,95784.05
2019-01-27T23:32:06.486Z,95780.80
2019-01-27T23:34:36.828Z,95782.11
2019-01-27T23:37:07.234Z,95786.02
2019-01-27T23:39:37.587Z,95786.34
2019-01-27T23:42:07.988Z,95788.30
2019-01-27T23:44:38.386Z,95787.75
2019-01-27T23:47:08.788Z,95796.36
2019-01-27T23:49:39.195Z,95796.22
2019-01-27T23:52:09.623Z,95794.53
2019-01-27T23:54:40.028Z,95796.45
2019-01-27T23:57:10.421Z,95800.89
2019-01-27T23:59:40.718Z,95807.23
